首页
METAR-TAF:

METAR-TAF

机场 :

辛菲羅波爾國際機場

辛菲罗波尔, 俄罗斯

纬度: 45-03-08N, 经度: 033-58-31E, 海拔: 195米

当前天气观测

该预报发布于23分钟前的20:30 UTC
风速2节,风向
温度 0°C
湿度 80%
气压 1023 hPa
能見度: 9000

METAR: URFF 262030Z 18001MPS 9000 NSC M00/M03 Q1023 R01/090095 NOSIG

时间: 23:53 (20:53 UTC)

预报

该预报发布于1小时和3分钟前的19:50 UTC
预报有效从26日的 21点(UTC)到 27日的 21点(UTC)
风速6节,风向东南
能见度10公里或以上
1500米以下无云,无积雨云
从 27日的 0900点(UTC)
风速6节,风向西转西南
能见度10公里或以上
散云层高于1600英尺
散云层高于3000英尺, 积雨云.

TAF: URFF 261950Z 2621/2721 14003MPS CAVOK TX10/2711Z TNM02/2703Z FM270900 25003MPS 9999 SCT016 SCT030CB

超过4000个机场的气象观测和天气预报(METAR&TAF报告)。

可查询的气象台以黄色和红色小点在地图上表示。

将鼠标移到小点上方,可查看气象台名称。

然后点击查看天气观测和预报。

如需切换地图:点击带黑十字的绿色按钮放大地图;点击带横线的绿色按钮缩小地图;或者点击绿色箭头查看邻近地区的地图。


METAR-TAF: